Time;durP1;ratioP1;P1;durP2;ratioP2;P2;SDS_P1;SDS_P2;PMS_P1;PMS_P2;Temp;Humidity;BMP_temperature;BMP_pressure;BME280_temperature;BME280_humidity;BME280_pressure;Samples;Min_cycle;Max_cycle;Signal;HPM_P1;HPM_P2
2022/10/24 00:01:34;;;;;;;8.57;1.50;;;;;;;15.71;55.29;99592.28;10054916;29;20254;-82
2022/10/24 00:06:56;;;;;;;8.93;1.83;;;;;;;15.58;55.65;99580.38;10041848;29;20357;-82
2022/10/24 00:12:18;;;;;;;7.63;1.63;;;;;;;15.42;56.07;99580.56;10054610;29;20704;-82
2022/10/24 00:17:21;;;;;;;3.93;1.63;;;;;;;15.20;56.67;99570.13;10054723;29;20222;-81
2022/10/24 00:22:44;;;;;;;7.33;1.70;;;;;;;15.09;57.29;99569.19;10049550;29;20888;-83
2022/10/24 00:28:06;;;;;;;8.20;1.60;;;;;;;15.58;55.92;99559.66;10047163;29;20278;-81
2022/10/24 00:33:28;;;;;;;11.63;1.80;;;;;;;15.86;54.54;99554.28;10053071;29;20222;-83
2022/10/24 00:38:50;;;;;;;6.23;1.90;;;;;;;15.75;54.18;99547.69;10051193;29;20222;-81
2022/10/24 00:44:27;;;;;;;7.80;1.98;;;;;;;15.91;54.05;99545.41;10027824;29;20509;-81
2022/10/24 00:50:11;;;;;;;7.57;1.90;;;;;;;16.11;52.83;99554.53;10066809;29;20228;-81
2022/10/24 00:55:33;;;;;;;6.40;1.98;;;;;;;15.86;53.01;99548.63;10066943;29;20226;-82
2022/10/24 01:00:55;;;;;;;8.17;2.10;;;;;;;15.75;53.36;99553.38;10040308;29;20330;-82
2022/10/24 01:06:26;;;;;;;6.37;1.90;;;;;;;15.60;53.35;99534.53;10022925;29;20302;-81
2022/10/24 01:12:11;;;;;;;7.77;1.70;;;;;;;15.82;52.94;99530.69;10049490;29;20254;-82
2022/10/24 01:17:54;;;;;;;4.73;1.37;;;;;;;15.38;53.40;99534.25;10048456;29;20294;-82
2022/10/24 01:23:22;;;;;;;6.07;1.80;;;;;;;15.77;52.36;99519.69;10051879;29;20392;-81
2022/10/24 01:29:16;;;;;;;4.85;1.85;;;;;;;16.43;50.51;99507.28;10050154;29;20229;-82
2022/10/24 01:34:46;;;;;;;7.60;1.63;;;;;;;16.53;50.05;99509.41;10062116;29;20230;-82
2022/10/24 01:40:49;;;;;;;4.27;1.70;;;;;;;16.55;49.74;99506.13;10052935;29;20305;-82
2022/10/24 01:46:14;;;;;;;9.93;1.80;;;;;;;16.45;50.26;99502.00;9977902;29;20255;-82
2022/10/24 01:51:37;;;;;;;3.22;1.33;;;;;;;15.95;51.45;99483.72;10021746;29;20227;-80
2022/10/24 01:57:00;;;;;;;6.80;1.40;;;;;;;16.57;49.77;99480.97;10008701;29;20207;-81
2022/10/24 02:02:33;;;;;;;4.33;1.47;;;;;;;15.72;51.57;99492.47;10025831;29;20303;-81
2022/10/24 02:08:01;;;;;;;10.80;2.17;;;;;;;16.49;49.85;99473.59;10059625;29;20298;-81
2022/10/24 02:13:33;;;;;;;5.07;1.90;;;;;;;16.53;49.02;99468.75;10063358;29;20230;-80
2022/10/24 02:18:56;;;;;;;4.03;1.25;;;;;;;15.90;50.29;99458.50;10063215;29;20206;-80
2022/10/24 02:24:22;;;;;;;5.25;1.40;;;;;;;15.98;50.36;99450.88;10053425;29;20218;-79
2022/10/24 02:29:53;;;;;;;4.33;1.50;;;;;;;16.31;49.39;99455.59;10051228;29;20222;-80
2022/10/24 02:35:17;;;;;;;8.93;1.58;;;;;;;16.19;48.97;99440.47;10064972;29;20263;-79
2022/10/24 02:40:41;;;;;;;8.00;1.25;;;;;;;15.31;51.32;99440.47;10037155;29;20234;-80
2022/10/24 02:46:04;;;;;;;15.57;2.08;;;;;;;15.25;51.44;99439.19;10059205;29;20251;-81
2022/10/24 02:51:28;;;;;;;6.97;1.80;;;;;;;15.76;49.95;99452.69;10077217;29;20239;-80
2022/10/24 02:57:01;;;;;;;6.65;1.27;;;;;;;15.70;49.82;99455.09;10078061;29;20255;-81
2022/10/24 03:02:23;;;;;;;7.45;1.30;;;;;;;15.84;50.31;99443.03;10063033;29;20260;-82
2022/10/24 03:07:48;;;;;;;4.28;1.13;;;;;;;15.43;50.79;99445.88;10072048;29;20203;-82
2022/10/24 03:13:10;;;;;;;4.53;1.25;;;;;;;15.94;49.54;99430.94;10072315;29;20646;-82
2022/10/24 03:18:32;;;;;;;5.63;1.20;;;;;;;16.01;48.99;99436.69;10070783;29;20294;-82
2022/10/24 03:23:54;;;;;;;4.25;1.17;;;;;;;15.39;51.08;99447.84;10058361;29;20266;-82
2022/10/24 03:29:07;;;;;;;5.88;1.42;;;;;;;16.12;48.83;99451.81;10058412;29;20195;-82
2022/10/24 03:34:29;;;;;;;4.68;1.30;;;;;;;15.83;49.65;99435.72;10057762;29;20187;-82
2022/10/24 03:39:51;;;;;;;6.10;1.40;;;;;;;15.74;49.95;99440.94;10058303;29;20195;-82
2022/10/24 03:45:13;;;;;;;5.03;1.00;;;;;;;16.09;48.75;99443.25;10032017;29;20228;-81
2022/10/24 03:50:35;;;;;;;7.03;1.27;;;;;;;15.50;50.18;99437.44;10042413;29;20708;-82
2022/10/24 03:55:59;;;;;;;5.00;1.55;;;;;;;15.83;49.59;99441.41;10038697;29;20254;-82
2022/10/24 04:01:22;;;;;;;6.63;1.33;;;;;;;15.56;50.20;99442.78;10054587;29;20624;-82
2022/10/24 04:06:44;;;;;;;6.20;1.13;;;;;;;15.63;49.94;99448.56;10034891;29;20283;-81
2022/10/24 04:12:06;;;;;;;8.57;1.40;;;;;;;15.97;49.12;99447.22;10062933;29;20250;-81
2022/10/24 04:17:28;;;;;;;7.80;1.58;;;;;;;15.80;49.31;99459.25;10048710;29;20223;-81
2022/10/24 04:22:51;;;;;;;4.75;1.25;;;;;;;15.60;49.42;99452.97;10058519;29;20219;-82
2022/10/24 04:28:13;;;;;;;5.05;1.50;;;;;;;15.72;49.80;99458.38;10035510;29;20284;-82
2022/10/24 04:33:35;;;;;;;7.88;1.50;;;;;;;16.14;48.45;99449.38;10047259;29;20559;-81
2022/10/24 04:38:57;;;;;;;6.50;1.40;;;;;;;15.68;49.29;99456.69;10057374;29;20195;-81
2022/10/24 04:43:59;;;;;;;4.82;1.10;;;;;;;15.68;49.97;99462.38;10053931;29;20283;-81
2022/10/24 04:49:21;;;;;;;8.05;1.90;;;;;;;15.20;50.87;99448.06;10024209;29;20626;-82
2022/10/24 04:54:43;;;;;;;11.88;1.50;;;;;;;15.17;50.76;99431.81;10046349;29;20199;-81
2022/10/24 05:00:06;;;;;;;3.13;1.08;;;;;;;15.60;49.75;99435.13;10044889;29;20214;-81
2022/10/24 05:05:28;;;;;;;6.78;1.27;;;;;;;15.15;50.23;99445.56;10050167;29;20210;-82
2022/10/24 05:10:50;;;;;;;11.02;1.42;;;;;;;15.57;49.24;99450.09;10056141;29;20218;-81
2022/10/24 05:16:12;;;;;;;8.88;1.50;;;;;;;15.28;49.43;99440.44;10076220;29;20206;-82
2022/10/24 05:21:34;;;;;;;5.97;1.38;;;;;;;15.87;48.09;99442.25;10053066;29;20234;-82
2022/10/24 05:26:56;;;;;;;3.00;1.00;;;;;;;15.23;49.78;99450.16;10064712;29;20604;-82
2022/10/24 05:32:19;;;;;;;5.30;1.67;;;;;;;15.29;49.92;99445.72;10062259;29;21877;-82
2022/10/24 05:37:42;;;;;;;4.00;1.42;;;;;;;15.47;48.63;99446.75;10078743;29;20206;-82
2022/10/24 05:43:04;;;;;;;6.10;1.20;;;;;;;15.57;48.64;99456.59;10065063;29;20227;-82
2022/10/24 05:48:26;;;;;;;3.60;0.85;;;;;;;15.95;47.42;99445.97;10064748;29;20485;-82
2022/10/24 05:53:48;;;;;;;2.67;1.25;;;;;;;15.52;47.77;99451.25;10068146;29;20243;-82
2022/10/24 05:59:10;;;;;;;2.73;0.80;;;;;;;15.37;48.22;99458.78;10063922;29;20210;-81
2022/10/24 06:04:32;;;;;;;2.80;1.07;;;;;;;16.02;47.12;99472.41;10067391;29;20317;-81
2022/10/24 06:09:54;;;;;;;4.88;0.98;;;;;;;14.97;48.80;99485.13;10066787;29;20616;-82
2022/10/24 06:15:17;;;;;;;5.65;0.68;;;;;;;15.09;48.39;99492.56;10066494;29;20564;-81
2022/10/24 06:20:39;;;;;;;4.85;0.82;;;;;;;15.23;48.10;99501.25;10049627;29;20283;-82
2022/10/24 06:26:01;;;;;;;3.70;0.87;;;;;;;15.74;46.36;99494.91;10058731;29;20259;-82
2022/10/24 06:31:25;;;;;;;4.80;0.77;;;;;;;15.78;46.87;99507.09;10057171;29;20256;-82
2022/10/24 06:36:47;;;;;;;1.85;0.55;;;;;;;14.78;48.83;99502.28;10065875;29;20620;-81
2022/10/24 06:42:09;;;;;;;3.30;0.40;;;;;;;15.59;46.43;99498.81;10038965;29;20254;-81
2022/10/24 06:47:31;;;;;;;5.80;0.88;;;;;;;15.72;46.14;99506.66;10052028;29;20263;-82
2022/10/24 06:52:53;;;;;;;4.23;0.60;;;;;;;15.49;46.92;99498.28;10055034;29;20702;-81
2022/10/24 06:58:15;;;;;;;4.37;0.80;;;;;;;15.81;46.34;99517.69;10071271;29;20218;-82
2022/10/24 07:03:37;;;;;;;4.20;0.60;;;;;;;15.43;47.25;99516.88;10072908;29;20318;-82
2022/10/24 07:09:00;;;;;;;7.78;1.08;;;;;;;15.31;47.38;99536.19;10070689;29;20398;-81
2022/10/24 07:14:24;;;;;;;8.00;0.73;;;;;;;15.63;46.75;99533.75;10058034;29;20371;-81
2022/10/24 07:19:56;;;;;;;2.88;0.55;;;;;;;15.23;48.88;99543.81;10061043;29;20488;-81
2022/10/24 07:25:18;;;;;;;2.10;0.70;;;;;;;15.82;47.00;99553.44;10061285;29;20254;-81
2022/10/24 07:30:43;;;;;;;2.30;0.77;;;;;;;15.82;46.61;99559.13;10053710;29;20278;-81
2022/10/24 07:36:06;;;;;;;3.83;0.95;;;;;;;15.49;47.38;99552.25;10069082;29;20259;-82
2022/10/24 07:41:29;;;;;;;2.17;1.00;;;;;;;16.30;45.82;99544.97;10057645;29;20280;-81
2022/10/24 07:46:51;;;;;;;3.20;0.70;;;;;;;15.72;46.99;99554.16;10071420;29;20270;-82
2022/10/24 07:52:13;;;;;;;4.38;0.85;;;;;;;16.69;45.41;99560.28;10049716;29;20211;-81
2022/10/24 07:57:35;;;;;;;4.90;0.68;;;;;;;16.18;46.13;99552.56;10073852;29;20562;-81
2022/10/24 08:02:58;;;;;;;1.92;0.60;;;;;;;16.44;45.74;99551.59;10061911;29;20223;-82
2022/10/24 08:08:20;;;;;;;3.33;0.70;;;;;;;17.05;44.85;99546.31;10063892;29;20293;-82
2022/10/24 08:13:43;;;;;;;4.60;0.70;;;;;;;16.53;45.17;99549.22;10061151;29;20294;-81
2022/10/24 08:19:05;;;;;;;4.63;0.82;;;;;;;16.21;45.43;99560.31;10056644;29;20206;-81
2022/10/24 08:24:24;;;;;;;3.47;0.63;;;;;;;16.37;44.72;99557.22;10062380;29;20226;-81
2022/10/24 08:29:46;;;;;;;4.05;1.02;;;;;;;16.46;45.25;99559.72;10048615;29;20229;-82
2022/10/24 08:35:08;;;;;;;6.38;0.98;;;;;;;16.50;44.33;99560.56;10061780;29;20233;-81
2022/10/24 08:40:30;;;;;;;3.10;0.80;;;;;;;16.48;44.51;99569.50;10065623;29;20202;-82
2022/10/24 08:46:04;;;;;;;4.05;0.88;;;;;;;16.41;44.82;99574.31;10062277;29;20218;-83
2022/10/24 08:51:41;;;;;;;6.55;0.80;;;;;;;15.77;45.86;99570.81;10060868;29;20251;-81
2022/10/24 08:57:04;;;;;;;4.57;0.47;;;;;;;16.38;45.16;99583.66;10047791;29;20287;-81
2022/10/24 09:02:36;;;;;;;1.77;0.55;;;;;;;16.83;43.14;99582.34;10059154;29;20291;-81
2022/10/24 09:08:03;;;;;;;2.72;0.60;;;;;;;16.21;44.58;99594.44;10050561;29;20624;-82
2022/10/24 09:13:27;;;;;;;2.42;0.80;;;;;;;16.08;45.01;99583.75;10060511;29;20226;-82
2022/10/24 09:18:52;;;;;;;4.93;0.68;;;;;;;16.28;45.17;99588.00;10060636;29;20206;-80
2022/10/24 09:24:36;;;;;;;6.10;1.00;;;;;;;16.55;44.57;99598.00;10058878;29;20222;-81
2022/10/24 09:29:59;;;;;;;3.83;1.02;;;;;;;16.61;44.38;99591.94;10074105;29;20278;-81
2022/10/24 09:35:23;;;;;;;6.77;0.70;;;;;;;16.98;43.42;99598.34;10060617;29;20247;-81
2022/10/24 09:40:50;;;;;;;2.95;0.68;;;;;;;17.08;43.15;99620.34;10047435;29;20199;-81
2022/10/24 09:46:19;;;;;;;5.68;0.82;;;;;;;16.84;44.22;99624.63;10047426;29;20266;-83
2022/10/24 09:51:44;;;;;;;3.85;0.73;;;;;;;17.16;43.16;99627.75;10060293;29;20187;-81
2022/10/24 09:57:11;;;;;;;2.63;0.60;;;;;;;15.75;46.08;99632.94;10060993;29;20198;-81
2022/10/24 10:02:23;;;;;;;3.72;0.63;;;;;;;17.35;42.69;99629.44;10077984;29;20253;-81
2022/10/24 10:07:47;;;;;;;5.45;1.10;;;;;;;16.98;43.97;99634.53;10081973;29;20263;-81
2022/10/24 10:13:23;;;;;;;5.82;1.02;;;;;;;16.42;44.91;99644.19;10064775;29;20282;-81
2022/10/24 10:18:45;;;;;;;7.22;1.02;;;;;;;16.81;44.84;99641.69;10078222;29;20198;-82
2022/10/24 10:24:23;;;;;;;5.70;1.30;;;;;;;16.79;44.49;99644.13;10066927;29;20218;-82
2022/10/24 10:29:45;;;;;;;9.32;1.20;;;;;;;17.20;43.63;99639.13;10066538;29;20489;-82
2022/10/24 10:35:19;;;;;;;4.95;1.05;;;;;;;16.83;44.03;99662.84;10063849;29;20202;-82
2022/10/24 10:40:45;;;;;;;6.15;0.90;;;;;;;17.07;43.39;99655.72;10064108;29;20207;-82
2022/10/24 10:46:31;;;;;;;5.70;0.70;;;;;;;16.15;45.69;99666.25;10059115;29;20222;-82
2022/10/24 10:51:57;;;;;;;2.80;0.63;;;;;;;16.75;44.08;99658.31;10063520;29;20270;-83
2022/10/24 10:57:32;;;;;;;5.70;0.70;;;;;;;16.48;44.09;99688.97;10071634;29;20473;-82
2022/10/24 11:03:06;;;;;;;5.85;1.40;;;;;;;16.32;44.40;99690.41;10041595;29;20347;-81
2022/10/24 11:08:47;;;;;;;5.65;0.80;;;;;;;16.56;44.14;99687.81;10074657;29;20226;-81
2022/10/24 11:14:27;;;;;;;6.00;1.15;;;;;;;17.01;42.80;99696.38;10060551;29;20298;-81
2022/10/24 11:20:02;;;;;;;5.72;1.20;;;;;;;16.47;43.56;99703.59;10074603;29;20206;-81
2022/10/24 11:25:46;;;;;;;4.85;1.02;;;;;;;16.05;44.69;99706.75;10057303;29;20263;-82
2022/10/24 11:31:18;;;;;;;3.88;1.00;;;;;;;16.90;44.50;99691.38;10061855;29;20210;-81
2022/10/24 11:36:55;;;;;;;10.25;0.80;;;;;;;16.13;45.12;99723.50;10050486;29;20248;-81
2022/10/24 11:42:26;;;;;;;6.68;0.90;;;;;;;16.45;44.41;99711.69;10048576;29;20306;-81
2022/10/24 11:47:59;;;;;;;4.43;0.77;;;;;;;16.64;44.09;99722.03;10043578;29;20271;-81
2022/10/24 11:53:25;;;;;;;7.82;0.85;;;;;;;16.60;43.24;99722.00;10045184;29;20286;-81
2022/10/24 11:59:18;;;;;;;3.58;0.50;;;;;;;16.30;44.24;99732.66;10048594;29;20593;-81
2022/10/24 12:04:53;;;;;;;5.75;0.95;;;;;;;17.32;42.20;99732.78;10055889;29;20222;-80
2022/10/24 12:10:37;;;;;;;5.00;0.60;;;;;;;16.45;44.91;99735.25;10045152;29;20711;-81
2022/10/24 12:16:38;;;;;;;4.53;1.00;;;;;;;16.95;45.03;99723.56;10032894;29;20237;-81
2022/10/24 12:22:03;;;;;;;4.75;0.80;;;;;;;16.48;45.14;99730.81;10049888;29;20272;-81
2022/10/24 12:27:38;;;;;;;7.75;1.10;;;;;;;16.72;44.10;99727.41;10049989;29;20500;-81
2022/10/24 12:33:23;;;;;;;7.35;1.25;;;;;;;16.84;44.69;99734.81;10043618;29;20248;-82
2022/10/24 12:38:57;;;;;;;4.00;1.25;;;;;;;15.82;46.08;99746.66;10056189;29;20282;-79
2022/10/24 12:44:31;;;;;;;6.35;1.17;;;;;;;16.57;46.54;99737.81;10055625;29;20334;-81
2022/10/24 12:49:53;;;;;;;5.60;0.98;;;;;;;15.95;47.96;99750.91;10042626;29;20321;-80
2022/10/24 12:55:37;;;;;;;6.03;1.02;;;;;;;16.12;49.62;99744.63;10038804;29;20609;-81
2022/10/24 13:01:06;;;;;;;5.50;1.00;;;;;;;15.95;49.00;99744.38;10047720;29;20230;-81
2022/10/24 13:06:42;;;;;;;6.37;1.10;;;;;;;15.61;49.86;99746.38;10050600;29;20261;-80
2022/10/24 13:12:29;;;;;;;3.50;1.23;;;;;;;16.17;49.15;99738.56;10044537;29;20238;-81
2022/10/24 13:18:06;;;;;;;6.22;1.00;;;;;;;17.05;47.05;99720.00;10076060;29;20218;-82
2022/10/24 13:23:30;;;;;;;7.05;0.98;;;;;;;16.89;46.38;99712.53;10053502;29;20222;-82
2022/10/24 13:28:52;;;;;;;6.57;1.35;;;;;;;16.13;46.79;99723.50;10068380;29;20203;-82
2022/10/24 13:34:20;;;;;;;6.32;1.05;;;;;;;16.61;45.58;99714.28;10049173;29;20290;-81
2022/10/24 13:39:48;;;;;;;9.00;1.20;;;;;;;17.01;45.69;99708.56;10061661;29;20199;-81
2022/10/24 13:45:27;;;;;;;8.85;0.93;;;;;;;16.39;46.21;99716.09;10063646;29;20285;-82
2022/10/24 13:51:01;;;;;;;4.32;0.95;;;;;;;16.99;44.74;99707.34;10063390;29;20198;-82
2022/10/24 13:56:24;;;;;;;5.82;0.93;;;;;;;17.31;45.13;99711.25;10052703;29;20187;-82
2022/10/24 14:01:46;;;;;;;4.93;0.90;;;;;;;17.01;45.65;99716.28;10046771;29;20314;-82
2022/10/24 14:07:08;;;;;;;5.43;1.08;;;;;;;16.30;46.76;99726.97;10053459;29;20250;-82
2022/10/24 14:12:31;;;;;;;4.97;0.98;;;;;;;17.35;44.96;99720.59;10062653;29;20740;-82
2022/10/24 14:17:59;;;;;;;11.33;1.53;;;;;;;16.88;45.38;99716.56;10054616;29;20469;-84
2022/10/24 14:23:34;;;;;;;5.53;1.02;;;;;;;17.09;44.56;99706.59;10061899;29;20215;-82
2022/10/24 14:28:59;;;;;;;6.93;1.40;;;;;;;16.76;44.82;99722.56;10065907;29;20278;-82
2022/10/24 14:34:21;;;;;;;5.35;1.00;;;;;;;16.88;43.95;99725.13;10076257;29;20259;-82
2022/10/24 14:39:44;;;;;;;3.92;0.82;;;;;;;16.54;44.18;99732.09;10061782;29;20668;-82
2022/10/24 14:45:20;;;;;;;3.00;0.65;;;;;;;16.85;43.46;99734.44;10040028;29;20219;-82
2022/10/24 14:50:43;;;;;;;5.13;0.95;;;;;;;16.87;43.68;99734.88;10064244;29;20210;-82
2022/10/24 14:56:17;;;;;;;5.97;1.20;;;;;;;16.55;44.04;99745.09;10054726;29;20231;-82
2022/10/24 15:01:39;;;;;;;7.43;0.85;;;;;;;16.82;43.83;99748.63;10057104;29;20231;-82
2022/10/24 15:07:30;;;;;;;5.60;1.02;;;;;;;17.39;43.07;99738.56;10065304;29;20242;-79
2022/10/24 15:12:55;;;;;;;7.40;1.13;;;;;;;17.72;42.37;99739.59;10080021;29;20570;-80
2022/10/24 15:18:51;;;;;;;6.03;0.80;;;;;;;16.81;44.06;99747.00;10073075;29;20267;-78
2022/10/24 15:24:23;;;;;;;7.30;1.48;;;;;;;16.18;44.83;99754.44;10029704;29;20262;-78
2022/10/24 15:29:45;;;;;;;5.97;1.10;;;;;;;17.23;42.95;99775.03;10057694;29;20268;-79
2022/10/24 15:35:07;;;;;;;5.53;1.45;;;;;;;16.64;46.24;99771.25;10061384;29;20250;-80
2022/10/24 15:40:32;;;;;;;6.60;1.27;;;;;;;17.02;44.87;99758.63;10064053;29;20199;-80
2022/10/24 15:45:54;;;;;;;6.43;1.10;;;;;;;16.68;46.02;99759.88;10052682;29;20580;-80
2022/10/24 15:51:18;;;;;;;10.55;1.85;;;;;;;16.97;46.35;99786.63;10057051;29;20227;-80
2022/10/24 15:56:41;;;;;;;6.50;1.42;;;;;;;16.90;46.69;99791.00;10022728;29;20241;-79
2022/10/24 16:02:03;;;;;;;9.05;1.50;;;;;;;17.31;47.54;99781.63;10039171;29;20597;-79
2022/10/24 16:07:25;;;;;;;5.03;1.40;;;;;;;16.92;48.85;99794.28;10045165;29;20254;-81
2022/10/24 16:12:48;;;;;;;11.75;2.25;;;;;;;16.04;54.63;99802.56;10066211;29;20230;-81
2022/10/24 16:18:11;;;;;;;7.28;1.52;;;;;;;15.79;58.27;99821.31;10052681;29;20255;-82
2022/10/24 16:23:34;;;;;;;7.57;1.20;;;;;;;15.04;59.00;99837.09;10045456;29;20253;-82
2022/10/24 16:28:50;;;;;;;10.63;1.80;;;;;;;15.27;58.90;99828.56;10052752;29;20239;-83
2022/10/24 16:34:12;;;;;;;8.20;2.07;;;;;;;15.99;57.43;99817.16;10066252;29;20604;-82
2022/10/24 16:39:34;;;;;;;8.85;2.58;;;;;;;16.02;57.14;99822.03;10056375;29;20274;-82
2022/10/24 16:44:56;;;;;;;8.60;3.40;;;;;;;16.16;58.01;99825.06;10053803;29;20286;-82
2022/10/24 16:50:24;;;;;;;6.90;1.60;;;;;;;15.81;58.32;99853.00;10064153;29;20951;-81
2022/10/24 16:55:48;;;;;;;13.23;2.35;;;;;;;15.32;59.63;99853.00;10052923;29;20283;-83
2022/10/24 17:01:13;;;;;;;8.90;2.10;;;;;;;15.43;58.80;99854.00;10047814;29;20218;-81
2022/10/24 17:06:35;;;;;;;9.50;2.40;;;;;;;15.40;58.09;99851.91;10034503;29;20890;-82
2022/10/24 17:12:02;;;;;;;11.77;1.57;;;;;;;15.79;57.44;99844.03;10063122;29;20290;-82
2022/10/24 17:17:24;;;;;;;8.32;2.10;;;;;;;15.55;57.60;99850.97;10049802;29;20234;-81
2022/10/24 17:22:46;;;;;;;9.10;1.80;;;;;;;15.66;56.99;99865.34;10037701;29;20283;-82
2022/10/24 17:28:11;;;;;;;4.32;1.15;;;;;;;15.19;58.79;99866.56;10051977;29;20226;-83
2022/10/24 17:33:33;;;;;;;4.27;1.70;;;;;;;15.12;59.71;99861.56;10052468;29;20294;-82
2022/10/24 17:39:04;;;;;;;6.17;1.67;;;;;;;15.03;59.35;99865.88;10042395;29;20246;-81
2022/10/24 17:44:24;;;;;;;12.60;2.30;;;;;;;15.03;59.70;99863.03;10035718;29;20250;-82
2022/10/24 17:49:46;;;;;;;11.80;2.10;;;;;;;15.28;58.78;99869.97;10034053;29;20238;-82
2022/10/24 17:55:17;;;;;;;6.97;1.80;;;;;;;15.41;58.88;99879.94;10038000;29;20290;-82
2022/10/24 18:00:39;;;;;;;6.43;1.97;;;;;;;15.84;57.00;99880.66;10045177;29;20247;-80
2022/10/24 18:06:04;;;;;;;9.13;2.40;;;;;;;14.75;59.61;99920.84;10048709;29;20571;-80
2022/10/24 18:11:26;;;;;;;5.10;1.38;;;;;;;14.53;59.06;99918.75;10052446;29;20327;-80
2022/10/24 18:16:48;;;;;;;5.75;1.63;;;;;;;14.35;60.93;99914.69;10045840;29;20202;-80
2022/10/24 18:22:10;;;;;;;5.25;1.80;;;;;;;13.97;64.14;99927.59;10061473;29;20207;-83
2022/10/24 18:27:33;;;;;;;5.53;1.45;;;;;;;13.79;62.31;99942.53;10060749;29;20317;-82
2022/10/24 18:32:56;;;;;;;4.00;1.00;;;;;;;13.80;61.64;99947.00;10039371;29;20247;-81
2022/10/24 18:38:18;;;;;;;2.63;0.60;;;;;;;13.95;61.11;99937.63;10038449;29;20277;-83
2022/10/24 18:43:40;;;;;;;3.87;0.70;;;;;;;13.53;61.45;99943.09;10063788;29;20214;-79
2022/10/24 18:49:02;;;;;;;3.30;0.60;;;;;;;13.33;62.00;99953.47;10062544;29;20524;-80
2022/10/24 18:54:25;;;;;;;4.05;0.40;;;;;;;13.96;58.30;99940.09;10061923;29;20597;-79
2022/10/24 18:59:47;;;;;;;2.23;0.30;;;;;;;14.16;57.77;99949.53;10046939;29;20608;-80
2022/10/24 19:05:21;;;;;;;4.57;0.50;;;;;;;13.44;60.31;99945.25;10046840;29;20692;-80
2022/10/24 19:10:44;;;;;;;3.80;0.50;;;;;;;14.22;57.77;99938.69;10049237;29;20575;-80
2022/10/24 19:16:11;;;;;;;5.57;0.50;;;;;;;14.12;57.66;99942.13;10049033;29;20195;-80
2022/10/24 19:21:32;;;;;;;3.47;0.67;;;;;;;13.48;60.02;99946.19;10089614;29;20198;-80
2022/10/24 19:26:55;;;;;;;3.07;0.70;;;;;;;13.45;60.99;99935.56;10042776;29;20261;-82
2022/10/24 19:32:17;;;;;;;4.70;0.67;;;;;;;13.07;63.17;99939.78;10057987;29;20218;-82
2022/10/24 19:37:39;;;;;;;4.03;0.80;;;;;;;13.15;63.08;99932.34;10054717;29;20206;-80
2022/10/24 19:43:01;;;;;;;4.47;1.00;;;;;;;13.22;61.76;99929.72;10053433;29;20207;-80
2022/10/24 19:48:23;;;;;;;2.03;0.60;;;;;;;13.74;59.78;99918.94;10047857;29;20226;-83
2022/10/24 19:53:47;;;;;;;2.73;0.70;;;;;;;13.54;59.85;99917.25;10056589;29;20229;-82
2022/10/24 19:59:11;;;;;;;5.10;0.77;;;;;;;13.62;59.36;99912.56;10039602;29;20249;-83
2022/10/24 20:04:38;;;;;;;2.77;0.80;;;;;;;14.04;57.39;99924.97;10046011;29;20262;-81
2022/10/24 20:10:00;;;;;;;5.13;0.98;;;;;;;14.84;55.74;99917.00;10053252;29;20395;-82
2022/10/24 20:15:20;;;;;;;6.70;1.10;;;;;;;14.88;55.91;99926.38;10053085;29;20230;-83
2022/10/24 20:20:42;;;;;;;4.50;0.93;;;;;;;14.51;56.59;99929.66;10051868;29;20589;-83
2022/10/24 20:26:06;;;;;;;4.72;1.05;;;;;;;14.15;57.90;99930.88;10025140;29;20258;-82
2022/10/24 20:31:30;;;;;;;5.33;0.77;;;;;;;13.83;59.42;99940.56;10056813;29;20612;-82
2022/10/24 20:36:53;;;;;;;5.40;1.60;;;;;;;14.15;58.17;99949.88;10059375;29;20203;-83
2022/10/24 20:42:15;;;;;;;3.37;1.00;;;;;;;13.63;60.29;99976.50;10070644;29;20255;-83
2022/10/24 20:47:37;;;;;;;6.33;1.23;;;;;;;14.61;58.56;100008.47;10055085;29;20258;-82
2022/10/24 20:53:00;;;;;;;8.57;1.60;;;;;;;14.41;60.37;100001.13;10072910;29;20262;-83
2022/10/24 20:58:22;;;;;;;5.77;1.70;;;;;;;14.23;60.11;100000.69;10057210;29;20198;-84
2022/10/24 21:03:44;;;;;;;6.10;1.40;;;;;;;14.26;60.11;99997.13;10046483;29;20263;-82
2022/10/24 21:09:06;;;;;;;4.53;1.07;;;;;;;13.67;62.27;100011.41;10056502;29;20287;-82
2022/10/24 21:14:28;;;;;;;7.40;1.27;;;;;;;14.26;59.83;100013.31;10063657;29;20726;-82
2022/10/24 21:19:50;;;;;;;2.73;0.77;;;;;;;14.53;58.65;100015.19;10059148;29;20620;-83
2022/10/24 21:25:14;;;;;;;5.73;1.20;;;;;;;13.96;60.15;100022.28;10053429;29;20222;-82
2022/10/24 21:30:36;;;;;;;7.00;1.13;;;;;;;14.30;60.39;100034.06;10058636;29;20214;-83
2022/10/24 21:36:03;;;;;;;7.70;1.37;;;;;;;14.20;60.14;100026.94;10036549;29;20202;-83
2022/10/24 21:41:26;;;;;;;9.20;1.50;;;;;;;13.85;61.54;100032.50;10059727;29;20214;-83
2022/10/24 21:46:53;;;;;;;3.83;1.07;;;;;;;13.91;61.52;100047.25;10042558;29;20338;-83
2022/10/24 21:52:15;;;;;;;8.70;1.07;;;;;;;14.13;60.12;100034.47;10033859;29;20219;-82
2022/10/24 21:57:37;;;;;;;5.17;0.97;;;;;;;14.73;57.79;100024.53;10042187;29;20195;-82
2022/10/24 22:02:59;;;;;;;3.27;1.53;;;;;;;14.25;59.50;100032.34;10059592;29;20211;-83
2022/10/24 22:08:22;;;;;;;6.07;1.67;;;;;;;13.66;63.37;100043.75;10049530;29;20290;-83
2022/10/24 22:13:45;;;;;;;6.70;1.87;;;;;;;13.69;62.45;100048.66;10056044;29;20230;-84
2022/10/24 22:19:09;;;;;;;7.77;1.80;;;;;;;13.73;63.03;100046.75;10062475;29;20198;-83
2022/10/24 22:24:31;;;;;;;4.87;1.00;;;;;;;13.74;61.57;100051.25;10051878;29;20731;-85
2022/10/24 22:29:53;;;;;;;3.47;1.20;;;;;;;13.86;61.26;100056.81;10052963;29;20281;-83
2022/10/24 22:35:16;;;;;;;4.37;0.80;;;;;;;13.20;61.63;100054.59;10065355;29;20218;-84
2022/10/24 22:40:38;;;;;;;3.47;0.70;;;;;;;14.06;59.74;100058.63;10065414;29;20239;-83
2022/10/24 22:46:20;;;;;;;3.57;0.60;;;;;;;14.49;57.33;100070.97;10066212;29;20271;-86
2022/10/24 22:51:42;;;;;;;3.20;0.43;;;;;;;13.95;59.55;100063.13;10080067;29;20210;-84
2022/10/24 22:57:05;;;;;;;3.37;0.70;;;;;;;13.67;60.18;100073.72;10051981;29;20210;-84
2022/10/24 23:02:31;;;;;;;3.63;0.83;;;;;;;13.44;61.10;100081.13;10034051;29;20218;-83
2022/10/24 23:08:03;;;;;;;4.07;0.67;;;;;;;13.89;60.26;100086.44;10062482;29;20278;-83
2022/10/24 23:13:25;;;;;;;7.00;0.80;;;;;;;14.36;58.26;100089.28;10064435;29;20223;-84
2022/10/24 23:18:47;;;;;;;6.00;0.88;;;;;;;14.46;58.23;100098.06;10065194;29;20223;-84
2022/10/24 23:24:15;;;;;;;4.35;0.98;;;;;;;14.38;58.97;100098.25;10051152;29;20211;-84
2022/10/24 23:29:42;;;;;;;5.67;1.27;;;;;;;13.90;60.28;100114.41;10065142;29;20280;-84
2022/10/24 23:35:05;;;;;;;5.37;0.97;;;;;;;13.88;60.49;100108.28;10064791;29;20588;-83
2022/10/24 23:40:35;;;;;;;3.07;1.40;;;;;;;14.08;60.12;100110.06;10064746;29;20466;-85
2022/10/24 23:45:59;;;;;;;9.70;1.33;;;;;;;14.70;58.00;100111.22;10063648;29;20218;-85
2022/10/24 23:51:33;;;;;;;9.65;1.27;;;;;;;14.62;58.49;100114.22;10076225;29;20191;-84
2022/10/24 23:56:56;;;;;;;6.78;1.35;;;;;;;14.44;58.54;100119.50;10076056;29;20258;-85
